Colonial Beach, VA (22443)

1:14 AM EST on February 13, 2016 (GMT -0500)
Colonial Beach | | Change Station
CLOSE
Current Station
Personal Weather Station
Location: Colonial Beach, VA
Elevation: 13 ft
Nearby Weather Stations

Elev 13 ft 38.26 °N, 76.97 °W | Updated 1 second ago

Overcast
Overcast
24.4 °F
Feels Like 24 °F
N
0.0
Wind Variable Wind from South
Gusts 0.0 mph

Today
High -- | Low -- °F
--% Chance of Precip.
Yesterday
High -- | Low -- °F
Precip. -- in
Pressure 30.01 in
Visibility 10.0 miles
Clouds Mostly Cloudy 4000 ft
Mostly Cloudy 4900 ft
Overcast 6500 ft
Windchill 24 °F
Dew Point 19 °F
Humidity 80%
Rainfall 0.00 in
Snow Depth Not available.
7:01 AM 5:43 PM
Waxing Crescent, 27% visible
METAR KEZF 130555Z AUTO 00000KT 10SM BKN040 BKN049 OVC065 M03/M07 A3001 RMK AO2 T10271075 11015 21037 410041082
Pressure 30.01 in
Visibility 10.0 miles
Clouds Mostly Cloudy 4000 ft
Mostly Cloudy 4900 ft
Overcast 6500 ft
Windchill 24 °F
Dew Point 19 °F
Humidity 80%
Rainfall 0.00 in
Snow Depth Not available.
7:01 AM 5:43 PM
Waxing Crescent, 27% visible
METAR KEZF 130555Z AUTO 00000KT 10SM BKN040 BKN049 OVC065 M03/M07 A3001 RMK AO2 T10271075 11015 21037 410041082

10-Day Weather Forecast

Almanac

Astronomy

Feb. 13, 2016 Rise Set
Actual Time
Civil Twilight
Nautical Twilight
Astronomical Twilight
Moon
Length of Visible Light
Length of Day
Tomorrow will be .
, % of the Moon is Illuminated

Today's Extremes

State Highs State Lows

Community

WunderPhotos

Upload Photos

1,892,513 photos uploaded!

WunderBlog® & News

Nearby

Air Quality

  Air Quality AQ Index Pollutant
Not available.

Snow Depth

Station Depth Elevation

Earthquake Activity

City Distance Mag. Time & Date
Minimum magnitude displayed is 2.5.

Coastal Water Temperatures

Place Temperature

Stations

Nearby Weather Stations

Station Location Temp. Windchill Dew Point Humidity Wind Precip. Elev Updated Type
                   

Watches & Warnings

There are currently no watches in effect.